Time;durP1;ratioP1;P1;durP2;ratioP2;P2;SDS_P1;SDS_P2;PMS_P1;PMS_P2;Temp;Humidity;BMP_temperature;BMP_pressure;BME280_temperature;BME280_humidity;BME280_pressure;Samples;Min_cycle;Max_cycle;Signal;HPM_P1;HPM_P2
2021/11/16 00:00:00;;;;;;;29.02;11.48;;;;;;;;;;10395230;28;20544;-70
2021/11/16 00:05:03;;;;;;;48.53;13.98;;;;;;;;;;10396563;28;20037;-70
2021/11/16 00:10:08;;;;;;;48.93;15.00;;;;;;;;;;10404068;28;20045;-70
2021/11/16 00:15:11;;;;;;;46.88;15.43;;;;;;;;;;10392949;28;20048;-70
2021/11/16 00:20:14;;;;;;;48.70;13.43;;;;;;;;;;10390925;28;20076;-71
2021/11/16 00:25:22;;;;;;;51.38;14.25;;;;;;;;;;10395929;28;20508;-70
2021/11/16 00:30:25;;;;;;;44.65;13.63;;;;;;;;;;10394116;28;20060;-71
2021/11/16 00:35:37;;;;;;;42.83;15.00;;;;;;;;;;10388692;28;20040;-71
2021/11/16 00:40:43;;;;;;;46.97;14.27;;;;;;;;;;10398484;28;20042;-72
2021/11/16 00:45:47;;;;;;;50.22;16.20;;;;;;;;;;10390342;28;20081;-71
2021/11/16 00:50:51;;;;;;;;;;;;;;;;;;10391841;28;20037;-70
2021/11/16 00:55:56;;;;;;;41.15;11.55;;;;;;;;;;10392431;28;19921;-70
2021/11/16 01:01:00;;;;;;;45.22;13.63;;;;;;;;;;10397328;28;20076;-69
2021/11/16 01:06:03;;;;;;;44.03;13.65;;;;;;;;;;10392103;28;20708;-70
2021/11/16 01:11:07;;;;;;;53.25;15.68;;;;;;;;;;10396676;28;20053;-70
2021/11/16 01:16:10;;;;;;;53.20;14.68;;;;;;;;;;10401322;28;20056;-70
2021/11/16 01:21:13;;;;;;;55.58;14.15;;;;;;;;;;10388267;28;20068;-71
2021/11/16 01:26:18;;;;;;;46.03;12.63;;;;;;;;;;10394497;28;20049;-70
2021/11/16 01:31:20;;;;;;;;;;;;;;;;;;10391916;28;20492;-70
2021/11/16 01:36:23;;;;;;;50.38;13.25;;;;;;;;;;10388830;28;19975;-70
2021/11/16 01:41:30;;;;;;;40.40;13.37;;;;;;;;;;10394773;28;20095;-70
2021/11/16 01:46:33;;;;;;;49.50;13.10;;;;;;;;;;10396290;28;20030;-70
2021/11/16 01:51:37;;;;;;;47.53;13.52;;;;;;;;;;10405307;28;20505;-76
2021/11/16 01:56:42;;;;;;;34.20;10.95;;;;;;;;;;10405730;28;20061;-70
2021/11/16 02:01:45;;;;;;;45.17;12.85;;;;;;;;;;10413730;28;20121;-70
2021/11/16 02:06:49;;;;;;;;;;;;;;;;;;10394867;28;20128;-71
2021/11/16 02:11:54;;;;;;;35.47;9.73;;;;;;;;;;10402226;28;19921;-71
2021/11/16 02:16:57;;;;;;;26.55;9.00;;;;;;;;;;10407550;28;20102;-71
2021/11/16 02:22:22;;;;;;;44.47;11.88;;;;;;;;;;10406908;28;20169;-71
2021/11/16 02:27:27;;;;;;;45.53;12.65;;;;;;;;;;10430573;28;20053;-71
2021/11/16 02:32:50;;;;;;;46.30;13.02;;;;;;;;;;10427103;28;20124;-70
2021/11/16 02:37:54;;;;;;;42.22;11.52;;;;;;;;;;10404650;28;20160;-70
2021/11/16 02:43:17;;;;;;;;;;;;;;;;;;10401162;28;20045;-70
2021/11/16 02:48:26;;;;;;;29.65;8.02;;;;;;;;;;10396252;28;20032;-71
2021/11/16 02:53:30;;;;;;;30.08;6.32;;;;;;;;;;10401774;28;20045;-70
2021/11/16 02:58:33;;;;;;;;;;;;;;;;;;10397003;28;20049;-70
2021/11/16 03:03:37;;;;;;;47.78;13.27;;;;;;;;;;10397456;28;20578;-70
2021/11/16 03:08:41;;;;;;;38.42;11.93;;;;;;;;;;10401968;28;20076;-70
2021/11/16 03:13:44;;;;;;;;;;;;;;;;;;10395976;28;20079;-68
2021/11/16 03:18:47;;;;;;;41.78;11.98;;;;;;;;;;10397300;28;20028;-70
2021/11/16 03:23:53;;;;;;;22.07;7.00;;;;;;;;;;10392697;28;20069;-69
2021/11/16 03:29:00;;;;;;;49.42;12.23;;;;;;;;;;10397684;28;20068;-70
2021/11/16 03:34:04;;;;;;;16.92;6.40;;;;;;;;;;10396695;28;20646;-71
2021/11/16 03:39:07;;;;;;;;;;;;;;;;;;10402994;28;20355;-71
2021/11/16 03:44:17;;;;;;;25.85;7.07;;;;;;;;;;10417018;28;20374;-70
2021/11/16 03:49:20;;;;;;;26.10;9.02;;;;;;;;;;10400175;28;20095;-70
2021/11/16 03:54:22;;;;;;;39.30;10.73;;;;;;;;;;10396128;28;20487;-69
2021/11/16 03:59:28;;;;;;;37.08;10.73;;;;;;;;;;10399194;28;20354;-71
2021/11/16 04:04:33;;;;;;;31.10;10.05;;;;;;;;;;10399709;28;20552;-69
2021/11/16 04:09:36;;;;;;;17.85;5.32;;;;;;;;;;10397692;28;20100;-71
2021/11/16 04:14:41;;;;;;;26.87;8.17;;;;;;;;;;10398923;28;20050;-68
2021/11/16 04:20:05;;;;;;;19.70;6.20;;;;;;;;;;10396106;28;20477;-70
2021/11/16 04:25:28;;;;;;;16.97;4.00;;;;;;;;;;10396776;28;20133;-70
2021/11/16 04:30:59;;;;;;;19.52;6.50;;;;;;;;;;10392208;28;20050;-70
2021/11/16 04:36:03;;;;;;;31.30;10.02;;;;;;;;;;10393108;28;20069;-69
2021/11/16 04:41:06;;;;;;;34.17;9.77;;;;;;;;;;10393218;28;20065;-70
2021/11/16 04:46:13;;;;;;;28.80;9.23;;;;;;;;;;10389562;28;20141;-71
2021/11/16 04:51:37;;;;;;;32.03;9.60;;;;;;;;;;10398190;28;20045;-70
2021/11/16 05:07:26;;;;;;;27.33;8.15;;;;;;;;;;10397075;28;20037;-70
2021/11/16 05:12:31;;;;;;;31.73;9.05;;;;;;;;;;10393261;28;20482;-70
2021/11/16 05:17:36;;;;;;;29.42;8.63;;;;;;;;;;10402444;28;20410;-70
2021/11/16 05:22:38;;;;;;;23.70;5.90;;;;;;;;;;10395718;28;20045;-70
2021/11/16 05:27:41;;;;;;;31.88;8.18;;;;;;;;;;10402638;28;20512;-71
2021/11/16 05:32:46;;;;;;;36.70;10.38;;;;;;;;;;10396571;28;20048;-70
2021/11/16 05:37:48;;;;;;;39.75;10.68;;;;;;;;;;10403840;28;20041;-71
2021/11/16 05:42:51;;;;;;;29.02;7.97;;;;;;;;;;10397954;28;20049;-72
2021/11/16 05:47:56;;;;;;;30.35;9.30;;;;;;;;;;10404096;28;20056;-72
2021/11/16 05:52:59;;;;;;;14.07;3.65;;;;;;;;;;10391831;28;20586;-71
2021/11/16 05:58:02;;;;;;;15.75;5.38;;;;;;;;;;10402165;28;20495;-72
2021/11/16 06:03:06;;;;;;;24.58;6.57;;;;;;;;;;10398975;28;20041;-71
2021/11/16 06:08:09;;;;;;;;;;;;;;;;;;10410977;28;20038;-72
2021/11/16 06:13:11;;;;;;;20.92;6.53;;;;;;;;;;10407748;28;19921;-71
2021/11/16 06:18:16;;;;;;;21.27;6.90;;;;;;;;;;10398955;28;20063;-72
2021/11/16 06:23:19;;;;;;;26.50;7.75;;;;;;;;;;10397663;28;20465;-70
2021/11/16 06:28:22;;;;;;;15.15;5.15;;;;;;;;;;10408159;28;20029;-72
2021/11/16 06:33:26;;;;;;;8.45;3.70;;;;;;;;;;10400408;28;20033;-71
2021/11/16 06:38:29;;;;;;;19.98;5.63;;;;;;;;;;10406148;28;20092;-71
2021/11/16 06:43:33;;;;;;;18.83;5.57;;;;;;;;;;10402354;28;20049;-71
2021/11/16 06:48:38;;;;;;;13.38;4.82;;;;;;;;;;10395673;28;20045;-70
2021/11/16 06:53:41;;;;;;;15.13;5.15;;;;;;;;;;10400549;28;20088;-70
2021/11/16 06:58:46;;;;;;;13.07;3.92;;;;;;;;;;10398801;28;20124;-73
2021/11/16 07:03:51;;;;;;;15.18;5.13;;;;;;;;;;10395695;28;20115;-71
2021/11/16 07:08:55;;;;;;;12.90;3.95;;;;;;;;;;10393454;28;20116;-70
2021/11/16 07:14:00;;;;;;;5.25;2.92;;;;;;;;;;10400669;28;20268;-71
2021/11/16 07:19:08;;;;;;;15.75;4.65;;;;;;;;;;10409870;28;20068;-72
2021/11/16 07:24:13;;;;;;;8.85;3.33;;;;;;;;;;10407280;28;20084;-69
2021/11/16 07:29:29;;;;;;;4.90;2.58;;;;;;;;;;10399953;28;20030;-71
2021/11/16 07:34:34;;;;;;;5.45;2.47;;;;;;;;;;10420946;28;20049;-69
2021/11/16 07:39:45;;;;;;;10.85;3.92;;;;;;;;;;10427797;28;20060;-70
2021/11/16 07:45:02;;;;;;;4.35;1.83;;;;;;;;;;10386506;28;20058;-71
2021/11/16 07:50:07;;;;;;;11.25;4.13;;;;;;;;;;10395418;28;20037;-72
2021/11/16 07:55:20;;;;;;;11.02;3.85;;;;;;;;;;10395048;28;20501;-69
2021/11/16 08:00:26;;;;;;;14.63;4.47;;;;;;;;;;10389671;28;20056;-71
2021/11/16 08:05:42;;;;;;;6.75;2.67;;;;;;;;;;10394488;28;20093;-71
2021/11/16 08:10:48;;;;;;;8.13;3.22;;;;;;;;;;10396866;28;20553;-73
2021/11/16 08:15:51;;;;;;;3.88;1.27;;;;;;;;;;10391686;28;20123;-72
2021/11/16 08:21:01;;;;;;;12.20;4.00;;;;;;;;;;10392669;28;20042;-71
2021/11/16 08:26:04;;;;;;;6.93;2.47;;;;;;;;;;10397153;28;20808;-73
2021/11/16 08:31:09;;;;;;;10.52;4.07;;;;;;;;;;10396491;28;20044;-70
2021/11/16 08:36:14;;;;;;;14.10;4.10;;;;;;;;;;10390047;28;20049;-72
2021/11/16 08:41:28;;;;;;;7.13;2.78;;;;;;;;;;10391113;28;20042;-70
2021/11/16 08:46:32;;;;;;;3.70;1.50;;;;;;;;;;10394788;28;20042;-72
2021/11/16 08:51:41;;;;;;;8.32;3.10;;;;;;;;;;10391995;28;20045;-73
2021/11/16 08:56:44;;;;;;;10.63;3.05;;;;;;;;;;10392680;28;20043;-68
2021/11/16 09:01:53;;;;;;;3.90;1.92;;;;;;;;;;10391697;28;20037;-71
2021/11/16 09:06:57;;;;;;;11.05;3.75;;;;;;;;;;10390419;28;20609;-73
2021/11/16 09:12:07;;;;;;;12.10;3.75;;;;;;;;;;10389614;28;20347;-71
2021/11/16 09:17:11;;;;;;;8.30;3.05;;;;;;;;;;10389527;28;20041;-73
2021/11/16 09:22:34;;;;;;;;;;;;;;;;;;10397415;28;20042;-72
2021/11/16 09:27:42;;;;;;;11.55;3.35;;;;;;;;;;10399781;28;19929;-72
2021/11/16 09:33:01;;;;;;;7.55;2.15;;;;;;;;;;10391944;28;20089;-72
2021/11/16 09:38:04;;;;;;;10.65;3.50;;;;;;;;;;10405743;28;20053;-74
2021/11/16 09:43:11;;;;;;;9.73;3.47;;;;;;;;;;10415889;28;20045;-71
2021/11/16 09:48:20;;;;;;;14.20;4.70;;;;;;;;;;10395744;28;20396;-70
2021/11/16 09:53:23;;;;;;;11.95;4.10;;;;;;;;;;10390420;28;20045;-72
2021/11/16 09:58:33;;;;;;;10.57;4.10;;;;;;;;;;10399744;28;20478;-72
2021/11/16 10:03:36;;;;;;;9.88;3.25;;;;;;;;;;10397957;28;20056;-71
2021/11/16 10:08:38;;;;;;;10.70;4.28;;;;;;;;;;10395260;28;20037;-71
2021/11/16 10:13:47;;;;;;;10.55;4.38;;;;;;;;;;10406248;28;20123;-70
2021/11/16 10:18:50;;;;;;;6.05;2.30;;;;;;;;;;10402849;28;20037;-72
2021/11/16 10:23:55;;;;;;;10.48;4.20;;;;;;;;;;10400254;28;20037;-71
2021/11/16 10:28:59;;;;;;;5.22;2.28;;;;;;;;;;10402697;28;20379;-73
2021/11/16 10:34:02;;;;;;;8.23;3.10;;;;;;;;;;10400565;28;20045;-71
2021/11/16 10:39:05;;;;;;;9.45;3.15;;;;;;;;;;10397213;28;20049;-71
2021/11/16 10:44:10;;;;;;;4.73;1.40;;;;;;;;;;10402046;28;20124;-72
2021/11/16 10:49:16;;;;;;;16.30;4.45;;;;;;;;;;10399672;28;20040;-70
2021/11/16 10:54:19;;;;;;;5.93;2.72;;;;;;;;;;10396049;28;20049;-72
2021/11/16 10:59:29;;;;;;;11.55;2.80;;;;;;;;;;10398058;28;20477;-70
2021/11/16 11:04:40;;;;;;;10.40;3.70;;;;;;;;;;10392840;28;20046;-71
2021/11/16 11:09:44;;;;;;;7.03;2.00;;;;;;;;;;10399839;28;20398;-73
2021/11/16 11:14:54;;;;;;;7.70;2.75;;;;;;;;;;10400660;28;20111;-70
2021/11/16 11:20:06;;;;;;;8.25;2.90;;;;;;;;;;10395560;28;20060;-70
2021/11/16 11:25:23;;;;;;;10.95;3.42;;;;;;;;;;10401767;28;20046;-70
2021/11/16 11:30:28;;;;;;;6.20;2.20;;;;;;;;;;10395238;28;20072;-70
2021/11/16 11:35:31;;;;;;;8.63;2.88;;;;;;;;;;10395003;28;20429;-71
2021/11/16 11:40:36;;;;;;;11.43;4.00;;;;;;;;;;10394629;28;20048;-70
2021/11/16 11:45:41;;;;;;;11.43;3.90;;;;;;;;;;10397464;28;20512;-70
2021/11/16 11:50:50;;;;;;;15.85;4.35;;;;;;;;;;10395755;28;20037;-72
2021/11/16 11:55:54;;;;;;;10.45;3.65;;;;;;;;;;10399523;28;20143;-71
2021/11/16 12:00:59;;;;;;;3.17;1.35;;;;;;;;;;10390210;28;20569;-71
2021/11/16 12:06:03;;;;;;;12.65;3.90;;;;;;;;;;10396218;28;20066;-70
2021/11/16 12:11:07;;;;;;;9.63;2.95;;;;;;;;;;10391691;28;20049;-71
2021/11/16 12:16:13;;;;;;;4.78;1.58;;;;;;;;;;10391317;28;20129;-70
2021/11/16 12:21:26;;;;;;;14.45;4.90;;;;;;;;;;10391109;28;20477;-71
2021/11/16 12:26:30;;;;;;;4.05;1.52;;;;;;;;;;10387095;28;20104;-71
2021/11/16 12:31:33;;;;;;;;;;;;;;;;;;10392642;28;20037;-72
2021/11/16 12:36:48;;;;;;;9.88;2.95;;;;;;;;;;10390430;28;19920;-69
2021/11/16 12:41:52;;;;;;;9.82;3.70;;;;;;;;;;10391198;28;20088;-72
2021/11/16 12:47:03;;;;;;;8.02;3.00;;;;;;;;;;10389547;28;20044;-70
2021/11/16 12:52:08;;;;;;;12.27;3.92;;;;;;;;;;10394853;28;20127;-71
2021/11/16 12:57:16;;;;;;;15.57;5.38;;;;;;;;;;10393685;28;20199;-70
2021/11/16 13:02:22;;;;;;;8.32;2.60;;;;;;;;;;10387349;28;20065;-69
2021/11/16 13:07:28;;;;;;;13.15;4.55;;;;;;;;;;10388786;28;20054;-71
2021/11/16 13:12:41;;;;;;;12.77;4.53;;;;;;;;;;10395408;28;20037;-71
2021/11/16 13:17:50;;;;;;;15.40;4.97;;;;;;;;;;10387486;28;20069;-70
2021/11/16 13:22:55;;;;;;;12.75;4.38;;;;;;;;;;10392124;28;20037;-70
2021/11/16 13:28:00;;;;;;;16.63;3.92;;;;;;;;;;10410052;28;20461;-68
2021/11/16 13:33:17;;;;;;;14.93;4.95;;;;;;;;;;10415235;28;20044;-70
2021/11/16 13:38:21;;;;;;;15.65;5.47;;;;;;;;;;10398605;28;20855;-71
2021/11/16 13:43:24;;;;;;;12.50;4.00;;;;;;;;;;10392241;28;20159;-70
2021/11/16 13:48:27;;;;;;;19.48;6.07;;;;;;;;;;10393035;28;20168;-70
2021/11/16 13:53:32;;;;;;;16.10;5.03;;;;;;;;;;10397390;28;20044;-71
2021/11/16 13:58:34;;;;;;;13.10;4.40;;;;;;;;;;10402188;28;20053;-71
2021/11/16 14:03:39;;;;;;;9.30;3.90;;;;;;;;;;10400035;28;20075;-71
2021/11/16 14:08:43;;;;;;;10.77;4.22;;;;;;;;;;10397224;28;20057;-71
2021/11/16 14:13:46;;;;;;;8.77;2.72;;;;;;;;;;10401177;28;20072;-71
2021/11/16 14:18:49;;;;;;;8.50;3.27;;;;;;;;;;10393453;28;20042;-73
2021/11/16 14:23:53;;;;;;;12.93;4.82;;;;;;;;;;10399713;28;20116;-69
2021/11/16 14:29:16;;;;;;;12.95;4.78;;;;;;;;;;10403885;28;20045;-70
2021/11/16 14:34:20;;;;;;;10.25;4.03;;;;;;;;;;10398598;28;20091;-69
2021/11/16 14:39:28;;;;;;;14.43;4.63;;;;;;;;;;10400644;28;20399;-72
2021/11/16 14:44:32;;;;;;;13.60;4.32;;;;;;;;;;10397353;28;20060;-70
2021/11/16 14:49:50;;;;;;;11.02;3.78;;;;;;;;;;10402576;28;20037;-69
2021/11/16 14:54:56;;;;;;;12.10;4.45;;;;;;;;;;10399319;28;20429;-69
2021/11/16 15:00:10;;;;;;;10.82;3.65;;;;;;;;;;10402483;28;20164;-72
2021/11/16 15:05:13;;;;;;;11.67;3.77;;;;;;;;;;10397322;28;20041;-69
2021/11/16 15:10:22;;;;;;;12.30;3.72;;;;;;;;;;10398234;28;20330;-70
2021/11/16 15:15:26;;;;;;;8.85;3.20;;;;;;;;;;10397056;28;20041;-70
2021/11/16 15:20:46;;;;;;;9.23;4.00;;;;;;;;;;10393175;28;20060;-70
2021/11/16 15:25:52;;;;;;;9.88;3.45;;;;;;;;;;10399245;28;20045;-71
2021/11/16 15:30:57;;;;;;;10.68;3.65;;;;;;;;;;10397687;28;20037;-70
2021/11/16 15:36:01;;;;;;;11.50;3.50;;;;;;;;;;10398735;28;20064;-70
2021/11/16 15:41:07;;;;;;;13.48;3.88;;;;;;;;;;10408731;28;20076;-70
2021/11/16 15:46:13;;;;;;;13.63;4.07;;;;;;;;;;10400452;28;20068;-70
2021/11/16 15:51:24;;;;;;;16.63;4.53;;;;;;;;;;10398640;28;20076;-70
2021/11/16 16:01:48;;;;;;;10.48;3.95;;;;;;;;;;10394677;28;20571;-69
2021/11/16 16:06:54;;;;;;;8.77;3.53;;;;;;;;;;10392613;28;20049;-68
2021/11/16 16:11:59;;;;;;;12.18;3.78;;;;;;;;;;10387878;28;20057;-70
2021/11/16 16:17:04;;;;;;;10.70;3.72;;;;;;;;;;10391762;28;20113;-70
2021/11/16 16:22:11;;;;;;;11.55;4.03;;;;;;;;;;10388273;28;20277;-70
2021/11/16 16:27:16;;;;;;;12.77;4.55;;;;;;;;;;10392733;28;20438;-69
2021/11/16 16:32:22;;;;;;;15.23;4.88;;;;;;;;;;10391644;28;20049;-69
2021/11/16 16:37:25;;;;;;;16.52;5.60;;;;;;;;;;10395827;28;20049;-72
2021/11/16 16:42:29;;;;;;;11.13;4.03;;;;;;;;;;10394119;28;20099;-71
2021/11/16 16:47:33;;;;;;;13.18;5.05;;;;;;;;;;10393199;28;20049;-70
2021/11/16 16:52:36;;;;;;;12.02;4.38;;;;;;;;;;10413068;28;20042;-72
2021/11/16 16:57:45;;;;;;;14.65;5.18;;;;;;;;;;10399933;28;20470;-71
2021/11/16 17:02:49;;;;;;;13.95;4.70;;;;;;;;;;10388174;28;20065;-70
2021/11/16 17:07:52;;;;;;;18.65;6.05;;;;;;;;;;10397925;28;20109;-70
2021/11/16 17:12:56;;;;;;;17.08;5.53;;;;;;;;;;10389025;28;20136;-70
2021/11/16 17:17:59;;;;;;;16.00;4.63;;;;;;;;;;10390817;28;20073;-70
2021/11/16 17:23:02;;;;;;;16.98;5.85;;;;;;;;;;10393144;28;20045;-68
2021/11/16 17:28:06;;;;;;;17.10;5.40;;;;;;;;;;10393775;28;20049;-71
2021/11/16 17:33:09;;;;;;;13.98;4.50;;;;;;;;;;10392749;28;20084;-72
2021/11/16 17:38:12;;;;;;;14.88;5.15;;;;;;;;;;10388894;28;20116;-72
2021/11/16 17:43:16;;;;;;;17.10;5.72;;;;;;;;;;10393821;28;20039;-72
2021/11/16 17:48:19;;;;;;;15.43;4.65;;;;;;;;;;10402828;28;20045;-72
2021/11/16 17:53:22;;;;;;;13.57;4.78;;;;;;;;;;10398617;28;20473;-70
2021/11/16 17:58:26;;;;;;;15.30;5.28;;;;;;;;;;10404366;28;20056;-72
2021/11/16 18:03:32;;;;;;;8.85;2.78;;;;;;;;;;10395549;28;20057;-72
2021/11/16 18:08:35;;;;;;;13.93;5.28;;;;;;;;;;10401541;28;20095;-71
2021/11/16 18:13:39;;;;;;;2.35;1.25;;;;;;;;;;10398668;28;20120;-72
2021/11/16 18:18:43;;;;;;;10.10;3.95;;;;;;;;;;10403047;28;20048;-71
2021/11/16 18:23:47;;;;;;;14.52;5.03;;;;;;;;;;10391369;28;20049;-72
2021/11/16 18:29:12;;;;;;;15.38;4.88;;;;;;;;;;10390954;28;20052;-72
2021/11/16 18:34:15;;;;;;;18.13;6.13;;;;;;;;;;10391543;28;20042;-70
2021/11/16 18:39:24;;;;;;;14.70;5.40;;;;;;;;;;10398601;28;20120;-72
2021/11/16 18:44:33;;;;;;;11.35;4.15;;;;;;;;;;10402592;28;20275;-71
2021/11/16 18:49:38;;;;;;;16.60;5.60;;;;;;;;;;10398108;28;20510;-70
2021/11/16 18:54:42;;;;;;;17.00;5.10;;;;;;;;;;10406694;28;20045;-72
2021/11/16 18:59:47;;;;;;;18.42;5.53;;;;;;;;;;10410369;28;20064;-71
2021/11/16 19:04:50;;;;;;;14.95;5.80;;;;;;;;;;10398340;28;20045;-72
2021/11/16 19:09:53;;;;;;;15.02;5.35;;;;;;;;;;10399696;28;20166;-73
2021/11/16 19:14:58;;;;;;;17.13;5.93;;;;;;;;;;10415034;28;20521;-71
2021/11/16 19:20:01;;;;;;;14.27;5.47;;;;;;;;;;10407085;28;20056;-71
2021/11/16 19:25:12;;;;;;;17.25;4.72;;;;;;;;;;10427598;28;20099;-71
2021/11/16 19:30:18;;;;;;;8.27;2.90;;;;;;;;;;10404360;28;20114;-71
2021/11/16 19:35:25;;;;;;;14.55;4.72;;;;;;;;;;10390942;28;20184;-73
2021/11/16 19:40:30;;;;;;;6.20;1.80;;;;;;;;;;10399360;28;20474;-71
2021/11/16 19:45:35;;;;;;;14.27;4.68;;;;;;;;;;10405126;28;20045;-72
2021/11/16 19:50:38;;;;;;;15.63;6.22;;;;;;;;;;10402959;28;20045;-70
2021/11/16 19:55:41;;;;;;;17.77;5.27;;;;;;;;;;10398271;28;20144;-71
2021/11/16 20:00:46;;;;;;;9.98;3.30;;;;;;;;;;10395578;28;20060;-71
2021/11/16 20:06:01;;;;;;;13.80;5.22;;;;;;;;;;10393198;28;20049;-71
2021/11/16 20:11:05;;;;;;;10.93;3.88;;;;;;;;;;10401503;28;20053;-71
2021/11/16 20:16:11;;;;;;;14.48;5.68;;;;;;;;;;10399471;28;20110;-70
2021/11/16 20:21:14;;;;;;;12.50;4.72;;;;;;;;;;10400879;28;20037;-69
2021/11/16 20:26:17;;;;;;;13.32;4.40;;;;;;;;;;10395076;28;20041;-70
2021/11/16 20:31:27;;;;;;;15.95;6.13;;;;;;;;;;10401223;28;20087;-70
2021/11/16 20:36:31;;;;;;;18.08;6.18;;;;;;;;;;10398542;28;20111;-70
2021/11/16 20:41:56;;;;;;;12.07;4.28;;;;;;;;;;10403719;28;20053;-70
2021/11/16 20:47:17;;;;;;;14.98;5.00;;;;;;;;;;10407397;28;20041;-71
2021/11/16 21:03:11;;;;;;;5.90;2.53;;;;;;;;;;10404844;28;20033;-70
2021/11/16 21:08:14;;;;;;;12.95;4.63;;;;;;;;;;10406027;28;20059;-69
2021/11/16 21:13:17;;;;;;;11.95;2.42;;;;;;;;;;10405683;28;20148;-72
2021/11/16 21:18:21;;;;;;;9.75;3.47;;;;;;;;;;10403709;28;20099;-69
2021/11/16 21:23:24;;;;;;;14.10;5.28;;;;;;;;;;10408158;28;20033;-70
2021/11/16 21:28:27;;;;;;;18.63;6.13;;;;;;;;;;10405251;28;20041;-69
2021/11/16 21:33:31;;;;;;;15.60;4.85;;;;;;;;;;10407602;28;20041;-70
2021/11/16 21:38:33;;;;;;;;;;;;;;;;;;10430916;28;20407;-69
2021/11/16 21:43:36;;;;;;;14.38;4.85;;;;;;;;;;10408600;28;19952;-71
2021/11/16 21:48:40;;;;;;;16.92;5.93;;;;;;;;;;10401941;28;20465;-69
2021/11/16 21:53:43;;;;;;;16.27;5.38;;;;;;;;;;10408704;28;20030;-69
2021/11/16 21:58:46;;;;;;;16.55;4.95;;;;;;;;;;10406619;28;20049;-69
2021/11/16 22:03:50;;;;;;;16.38;5.65;;;;;;;;;;10409173;28;20033;-71
2021/11/16 22:09:03;;;;;;;18.40;5.35;;;;;;;;;;10406978;28;20505;-71
2021/11/16 22:14:06;;;;;;;12.40;4.45;;;;;;;;;;10417942;28;20056;-70
2021/11/16 22:19:10;;;;;;;12.70;4.73;;;;;;;;;;10411344;28;20107;-70
2021/11/16 22:24:13;;;;;;;16.77;5.55;;;;;;;;;;10412324;28;20064;-70
2021/11/16 22:29:22;;;;;;;18.42;6.35;;;;;;;;;;10410238;28;20065;-70
2021/11/16 22:34:33;;;;;;;14.55;5.25;;;;;;;;;;10413692;28;20084;-69
2021/11/16 22:39:36;;;;;;;5.47;2.30;;;;;;;;;;10405442;28;20042;-70
2021/11/16 22:44:39;;;;;;;22.10;7.10;;;;;;;;;;10412994;28;20068;-70
2021/11/16 22:49:43;;;;;;;15.63;5.17;;;;;;;;;;10412541;28;20045;-71
2021/11/16 22:54:46;;;;;;;;;;;;;;;;;;10414585;28;20049;-71
